sensor_id;sensor_type;location;lat;lon;timestamp;pressure;altitude;pressure_sealevel;temperature;humidity
72585;BME280;60618;40.084;32.908;2023-09-19T00:01:29;89672.91;;;11.78;66.29
72585;BME280;60618;40.084;32.908;2023-09-19T00:03:57;89667.75;;;11.75;66.43
72585;BME280;60618;40.084;32.908;2023-09-19T00:06:23;89667.50;;;11.73;66.55
72585;BME280;60618;40.084;32.908;2023-09-19T00:08:50;89663.31;;;11.66;67.19
72585;BME280;60618;40.084;32.908;2023-09-19T00:11:18;89678.59;;;11.65;67.18
72585;BME280;60618;40.084;32.908;2023-09-19T00:13:47;89673.75;;;11.64;67.14
72585;BME280;60618;40.084;32.908;2023-09-19T00:16:14;89680.59;;;11.71;66.86
72585;BME280;60618;40.084;32.908;2023-09-19T00:18:41;89678.84;;;11.68;66.32
72585;BME280;60618;40.084;32.908;2023-09-19T00:21:08;89678.59;;;11.65;66.92
72585;BME280;60618;40.084;32.908;2023-09-19T00:23:35;89666.91;;;11.57;66.97
72585;BME280;60618;40.084;32.908;2023-09-19T00:26:02;89650.34;;;11.48;67.26
72585;BME280;60618;40.084;32.908;2023-09-19T00:28:29;89671.19;;;11.49;66.81
72585;BME280;60618;40.084;32.908;2023-09-19T00:30:57;89654.16;;;11.41;67.62
72585;BME280;60618;40.084;32.908;2023-09-19T00:33:24;89667.47;;;11.41;67.81
72585;BME280;60618;40.084;32.908;2023-09-19T00:35:52;89672.09;;;11.41;67.36
72585;BME280;60618;40.084;32.908;2023-09-19T00:38:20;89638.59;;;11.34;68.09
72585;BME280;60618;40.084;32.908;2023-09-19T00:40:48;89655.53;;;11.31;68.50
72585;BME280;60618;40.084;32.908;2023-09-19T00:43:15;89663.00;;;11.27;69.08
72585;BME280;60618;40.084;32.908;2023-09-19T00:45:46;89673.19;;;11.28;68.92
72585;BME280;60618;40.084;32.908;2023-09-19T00:48:13;89656.00;;;11.29;68.81
72585;BME280;60618;40.084;32.908;2023-09-19T00:50:43;89658.66;;;11.29;68.36
72585;BME280;60618;40.084;32.908;2023-09-19T00:53:13;89655.44;;;11.20;68.98
72585;BME280;60618;40.084;32.908;2023-09-19T00:55:41;89657.34;;;11.19;68.66
72585;BME280;60618;40.084;32.908;2023-09-19T00:58:08;89662.84;;;11.10;69.84
72585;BME280;60618;40.084;32.908;2023-09-19T01:00:37;89660.06;;;10.99;70.47
72585;BME280;60618;40.084;32.908;2023-09-19T01:03:05;89652.34;;;11.01;70.27
72585;BME280;60618;40.084;32.908;2023-09-19T01:05:33;89667.53;;;10.95;70.48
72585;BME280;60618;40.084;32.908;2023-09-19T01:08:00;89648.84;;;10.89;70.50
72585;BME280;60618;40.084;32.908;2023-09-19T01:10:27;89648.50;;;10.82;70.54
72585;BME280;60618;40.084;32.908;2023-09-19T01:13:16;89641.19;;;10.76;70.90
72585;BME280;60618;40.084;32.908;2023-09-19T01:15:58;89647.06;;;10.80;70.73
72585;BME280;60618;40.084;32.908;2023-09-19T01:21:52;89652.38;;;10.80;70.84
72585;BME280;60618;40.084;32.908;2023-09-19T01:29:49;89639.41;;;10.68;71.04
72585;BME280;60618;40.084;32.908;2023-09-19T01:32:18;89605.94;;;10.61;71.73
72585;BME280;60618;40.084;32.908;2023-09-19T01:37:17;89609.03;;;10.60;72.42
72585;BME280;60618;40.084;32.908;2023-09-19T01:39:44;89644.09;;;10.52;72.64
72585;BME280;60618;40.084;32.908;2023-09-19T01:42:27;89638.22;;;10.48;72.79
72585;BME280;60618;40.084;32.908;2023-09-19T01:45:26;89622.97;;;10.49;73.38
72585;BME280;60618;40.084;32.908;2023-09-19T01:47:55;89644.09;;;10.52;72.69
72585;BME280;60618;40.084;32.908;2023-09-19T01:50:38;89626.09;;;10.47;72.73
72585;BME280;60618;40.084;32.908;2023-09-19T01:53:23;89639.88;;;10.46;73.01
72585;BME280;60618;40.084;32.908;2023-09-19T01:55:52;89637.47;;;10.48;72.37
72585;BME280;60618;40.084;32.908;2023-09-19T01:58:45;89636.28;;;10.49;72.53
72585;BME280;60618;40.084;32.908;2023-09-19T02:01:17;89631.16;;;10.45;72.93
72585;BME280;60618;40.084;32.908;2023-09-19T02:03:47;89614.66;;;10.41;72.17
72585;BME280;60618;40.084;32.908;2023-09-19T02:06:16;89624.53;;;10.35;72.61
72585;BME280;60618;40.084;32.908;2023-09-19T02:08:44;89629.13;;;10.35;72.85
72585;BME280;60618;40.084;32.908;2023-09-19T02:11:12;89630.25;;;10.28;72.79
72585;BME280;60618;40.084;32.908;2023-09-19T02:13:39;89628.31;;;10.29;72.70
72585;BME280;60618;40.084;32.908;2023-09-19T02:16:07;89620.53;;;10.25;72.51
72585;BME280;60618;40.084;32.908;2023-09-19T02:18:34;89634.28;;;10.23;72.60
72585;BME280;60618;40.084;32.908;2023-09-19T02:21:02;89624.09;;;10.22;72.66
72585;BME280;60618;40.084;32.908;2023-09-19T02:23:28;89619.44;;;10.17;72.81
72585;BME280;60618;40.084;32.908;2023-09-19T02:25:56;89617.97;;;10.16;73.70
72585;BME280;60618;40.084;32.908;2023-09-19T02:28:24;89608.44;;;10.09;73.42
72585;BME280;60618;40.084;32.908;2023-09-19T02:30:51;89609.31;;;10.01;73.76
72585;BME280;60618;40.084;32.908;2023-09-19T02:33:17;89602.69;;;9.96;73.95
72585;BME280;60618;40.084;32.908;2023-09-19T02:35:44;89599.31;;;9.95;74.18
72585;BME280;60618;40.084;32.908;2023-09-19T02:38:11;89600.47;;;9.89;73.67
72585;BME280;60618;40.084;32.908;2023-09-19T02:40:38;89598.25;;;9.87;74.17
72585;BME280;60618;40.084;32.908;2023-09-19T02:43:05;89587.72;;;9.78;74.67
72585;BME280;60618;40.084;32.908;2023-09-19T02:45:32;89612.22;;;9.82;74.69
72585;BME280;60618;40.084;32.908;2023-09-19T02:47:59;89608.25;;;9.78;75.09
72585;BME280;60618;40.084;32.908;2023-09-19T02:50:26;89595.69;;;9.78;75.08
72585;BME280;60618;40.084;32.908;2023-09-19T02:52:53;89625.63;;;9.73;75.45
72585;BME280;60618;40.084;32.908;2023-09-19T02:55:20;89611.59;;;9.73;75.40
72585;BME280;60618;40.084;32.908;2023-09-19T02:57:50;89601.22;;;9.75;76.14
72585;BME280;60618;40.084;32.908;2023-09-19T03:00:19;89611.13;;;9.74;75.90
72585;BME280;60618;40.084;32.908;2023-09-19T03:02:46;89628.81;;;9.77;75.77
72585;BME280;60618;40.084;32.908;2023-09-19T03:05:13;89613.13;;;9.79;76.07
72585;BME280;60618;40.084;32.908;2023-09-19T03:07:40;89628.91;;;9.83;75.34
72585;BME280;60618;40.084;32.908;2023-09-19T03:10:07;89621.38;;;9.81;75.31
72585;BME280;60618;40.084;32.908;2023-09-19T03:12:34;89626.72;;;9.81;74.84
72585;BME280;60618;40.084;32.908;2023-09-19T03:15:02;89633.38;;;9.91;74.83
72585;BME280;60618;40.084;32.908;2023-09-19T03:17:29;89614.19;;;9.87;74.74
72585;BME280;60618;40.084;32.908;2023-09-19T03:19:56;89621.56;;;9.78;74.84
72585;BME280;60618;40.084;32.908;2023-09-19T03:22:23;89609.94;;;9.75;74.94
72585;BME280;60618;40.084;32.908;2023-09-19T03:24:50;89611.97;;;9.65;74.81
72585;BME280;60618;40.084;32.908;2023-09-19T03:27:17;89630.31;;;9.63;75.09
72585;BME280;60618;40.084;32.908;2023-09-19T03:29:44;89610.25;;;9.62;75.35
72585;BME280;60618;40.084;32.908;2023-09-19T03:32:11;89624.72;;;9.61;75.69
72585;BME280;60618;40.084;32.908;2023-09-19T03:34:38;89629.59;;;9.63;75.31
72585;BME280;60618;40.084;32.908;2023-09-19T03:37:05;89619.75;;;9.69;75.17
72585;BME280;60618;40.084;32.908;2023-09-19T03:39:32;89625.06;;;9.69;75.24
72585;BME280;60618;40.084;32.908;2023-09-19T03:42:00;89632.41;;;9.74;74.90
72585;BME280;60618;40.084;32.908;2023-09-19T03:44:27;89638.59;;;9.86;74.79
72585;BME280;60618;40.084;32.908;2023-09-19T03:46:54;89624.56;;;9.85;73.92
72585;BME280;60618;40.084;32.908;2023-09-19T03:49:21;89632.38;;;9.89;73.83
72585;BME280;60618;40.084;32.908;2023-09-19T03:51:49;89647.19;;;9.95;73.58
72585;BME280;60618;40.084;32.908;2023-09-19T03:54:15;89640.84;;;10.08;73.22
72585;BME280;60618;40.084;32.908;2023-09-19T03:56:42;89642.34;;;10.29;72.01
72585;BME280;60618;40.084;32.908;2023-09-19T03:59:09;89665.03;;;10.65;70.44
72585;BME280;60618;40.084;32.908;2023-09-19T04:01:36;89670.00;;;10.78;69.34
72585;BME280;60618;40.084;32.908;2023-09-19T04:04:03;89656.03;;;10.83;69.48
72585;BME280;60618;40.084;32.908;2023-09-19T04:06:30;89661.63;;;10.85;69.14
72585;BME280;60618;40.084;32.908;2023-09-19T04:08:57;89660.13;;;11.04;67.81
72585;BME280;60618;40.084;32.908;2023-09-19T04:11:24;89658.03;;;10.88;69.04
72585;BME280;60618;40.084;32.908;2023-09-19T04:13:51;89659.91;;;10.82;69.46
72585;BME280;60618;40.084;32.908;2023-09-19T04:16:18;89662.91;;;10.69;70.30
72585;BME280;60618;40.084;32.908;2023-09-19T04:18:45;89644.72;;;10.68;70.24
72585;BME280;60618;40.084;32.908;2023-09-19T04:21:12;89636.41;;;10.80;69.21
72585;BME280;60618;40.084;32.908;2023-09-19T04:23:39;89664.50;;;10.82;69.54
72585;BME280;60618;40.084;32.908;2023-09-19T04:26:06;89634.31;;;10.90;69.16
72585;BME280;60618;40.084;32.908;2023-09-19T04:28:33;89631.50;;;10.99;68.98
72585;BME280;60618;40.084;32.908;2023-09-19T04:31:00;89654.84;;;11.10;67.73
72585;BME280;60618;40.084;32.908;2023-09-19T04:33:27;89653.22;;;11.18;68.14
72585;BME280;60618;40.084;32.908;2023-09-19T04:35:54;89666.09;;;11.20;67.54
72585;BME280;60618;40.084;32.908;2023-09-19T04:38:24;89659.06;;;11.22;67.25
72585;BME280;60618;40.084;32.908;2023-09-19T04:40:56;89651.63;;;11.26;66.84
72585;BME280;60618;40.084;32.908;2023-09-19T04:43:23;89654.47;;;11.23;66.83
72585;BME280;60618;40.084;32.908;2023-09-19T04:45:50;89663.84;;;11.38;66.93
72585;BME280;60618;40.084;32.908;2023-09-19T04:48:17;89658.03;;;11.40;64.94
72585;BME280;60618;40.084;32.908;2023-09-19T04:50:44;89671.19;;;11.49;66.14
72585;BME280;60618;40.084;32.908;2023-09-19T04:53:11;89663.03;;;11.58;65.14
72585;BME280;60618;40.084;32.908;2023-09-19T04:55:38;89662.09;;;11.61;64.10
72585;BME280;60618;40.084;32.908;2023-09-19T04:58:05;89665.78;;;11.70;64.16
72585;BME280;60618;40.084;32.908;2023-09-19T05:00:32;89666.88;;;11.83;62.21
72585;BME280;60618;40.084;32.908;2023-09-19T05:02:59;89649.97;;;11.92;62.77
72585;BME280;60618;40.084;32.908;2023-09-19T05:05:26;89673.38;;;12.08;61.57
72585;BME280;60618;40.084;32.908;2023-09-19T05:07:55;89679.25;;;12.18;61.38
72585;BME280;60618;40.084;32.908;2023-09-19T05:10:23;89675.91;;;12.29;60.36
72585;BME280;60618;40.084;32.908;2023-09-19T05:12:53;89676.44;;;12.38;60.39
72585;BME280;60618;40.084;32.908;2023-09-19T05:15:20;89666.28;;;12.42;59.65
72585;BME280;60618;40.084;32.908;2023-09-19T05:17:48;89674.81;;;12.52;60.26
72585;BME280;60618;40.084;32.908;2023-09-19T05:20:16;89671.66;;;12.54;60.31
72585;BME280;60618;40.084;32.908;2023-09-19T05:22:43;89665.13;;;12.55;60.50
72585;BME280;60618;40.084;32.908;2023-09-19T05:25:10;89665.88;;;12.61;60.27
72585;BME280;60618;40.084;32.908;2023-09-19T05:27:37;89662.22;;;12.58;59.49
72585;BME280;60618;40.084;32.908;2023-09-19T05:30:05;89669.25;;;12.50;60.75
72585;BME280;60618;40.084;32.908;2023-09-19T05:32:37;89674.63;;;12.67;60.36
72585;BME280;60618;40.084;32.908;2023-09-19T05:35:04;89674.69;;;12.78;59.58
72585;BME280;60618;40.084;32.908;2023-09-19T05:37:31;89678.81;;;12.79;58.31
72585;BME280;60618;40.084;32.908;2023-09-19T05:39:58;89693.13;;;12.76;58.27
72585;BME280;60618;40.084;32.908;2023-09-19T05:42:24;89686.91;;;12.96;59.49
72585;BME280;60618;40.084;32.908;2023-09-19T05:44:51;89673.59;;;13.13;58.49
72585;BME280;60618;40.084;32.908;2023-09-19T05:47:18;89692.13;;;13.27;58.38
72585;BME280;60618;40.084;32.908;2023-09-19T05:49:45;89686.53;;;13.25;58.42
72585;BME280;60618;40.084;32.908;2023-09-19T05:52:12;89699.47;;;13.44;56.83
72585;BME280;60618;40.084;32.908;2023-09-19T05:54:39;89675.41;;;13.60;56.07
72585;BME280;60618;40.084;32.908;2023-09-19T05:57:06;89689.28;;;13.70;55.51
72585;BME280;60618;40.084;32.908;2023-09-19T05:59:33;89682.72;;;13.77;54.84
72585;BME280;60618;40.084;32.908;2023-09-19T06:02:00;89691.47;;;13.88;54.64
72585;BME280;60618;40.084;32.908;2023-09-19T06:04:26;89693.44;;;13.88;53.63
72585;BME280;60618;40.084;32.908;2023-09-19T06:06:53;89698.03;;;13.99;53.72
72585;BME280;60618;40.084;32.908;2023-09-19T06:09:23;89713.63;;;14.11;53.90
72585;BME280;60618;40.084;32.908;2023-09-19T06:11:50;89706.53;;;14.19;54.14
72585;BME280;60618;40.084;32.908;2023-09-19T06:14:17;89704.59;;;14.26;53.70
72585;BME280;60618;40.084;32.908;2023-09-19T06:16:44;89707.28;;;14.26;54.34
72585;BME280;60618;40.084;32.908;2023-09-19T06:19:11;89694.38;;;14.46;53.79
72585;BME280;60618;40.084;32.908;2023-09-19T06:21:39;89691.38;;;14.72;52.68
72585;BME280;60618;40.084;32.908;2023-09-19T06:24:06;89693.88;;;14.59;52.75
72585;BME280;60618;40.084;32.908;2023-09-19T06:26:33;89706.50;;;14.64;53.22
72585;BME280;60618;40.084;32.908;2023-09-19T06:29:00;89704.31;;;14.74;52.97
72585;BME280;60618;40.084;32.908;2023-09-19T06:31:29;89706.19;;;14.90;52.81
72585;BME280;60618;40.084;32.908;2023-09-19T06:33:56;89717.31;;;15.17;53.05
72585;BME280;60618;40.084;32.908;2023-09-19T06:36:23;89715.22;;;15.45;51.66
72585;BME280;60618;40.084;32.908;2023-09-19T06:38:50;89716.72;;;15.46;50.97
72585;BME280;60618;40.084;32.908;2023-09-19T06:41:17;89714.19;;;15.59;51.56
72585;BME280;60618;40.084;32.908;2023-09-19T06:43:45;89712.38;;;15.32;52.23
72585;BME280;60618;40.084;32.908;2023-09-19T06:46:12;89714.72;;;15.52;51.74
72585;BME280;60618;40.084;32.908;2023-09-19T06:48:39;89711.53;;;15.54;51.05
72585;BME280;60618;40.084;32.908;2023-09-19T06:51:07;89717.47;;;15.36;50.99
72585;BME280;60618;40.084;32.908;2023-09-19T06:53:34;89715.41;;;15.64;50.43
72585;BME280;60618;40.084;32.908;2023-09-19T06:56:02;89712.47;;;15.62;50.45
72585;BME280;60618;40.084;32.908;2023-09-19T06:58:29;89722.38;;;15.84;50.35
72585;BME280;60618;40.084;32.908;2023-09-19T07:00:57;89717.72;;;15.84;49.51
72585;BME280;60618;40.084;32.908;2023-09-19T07:03:25;89708.28;;;16.08;49.68
72585;BME280;60618;40.084;32.908;2023-09-19T07:05:52;89713.75;;;16.27;48.90
72585;BME280;60618;40.084;32.908;2023-09-19T07:08:18;89722.06;;;16.29;48.48
72585;BME280;60618;40.084;32.908;2023-09-19T07:10:45;89710.97;;;16.38;48.31
72585;BME280;60618;40.084;32.908;2023-09-19T07:13:12;89711.63;;;16.44;48.03
72585;BME280;60618;40.084;32.908;2023-09-19T07:15:39;89713.66;;;16.62;47.37
72585;BME280;60618;40.084;32.908;2023-09-19T07:18:07;89724.50;;;16.27;48.23
72585;BME280;60618;40.084;32.908;2023-09-19T07:20:34;89721.94;;;16.40;48.57
72585;BME280;60618;40.084;32.908;2023-09-19T07:23:01;89721.41;;;16.47;47.58
72585;BME280;60618;40.084;32.908;2023-09-19T07:25:29;89726.50;;;16.51;47.35
72585;BME280;60618;40.084;32.908;2023-09-19T07:27:57;89720.66;;;16.77;47.64
72585;BME280;60618;40.084;32.908;2023-09-19T07:30:24;89722.75;;;16.59;47.09
72585;BME280;60618;40.084;32.908;2023-09-19T07:32:52;89717.63;;;16.86;47.30
72585;BME280;60618;40.084;32.908;2023-09-19T07:35:19;89708.34;;;16.87;47.63
72585;BME280;60618;40.084;32.908;2023-09-19T07:37:47;89716.31;;;16.73;48.14
72585;BME280;60618;40.084;32.908;2023-09-19T07:40:16;89708.16;;;16.79;47.57
72585;BME280;60618;40.084;32.908;2023-09-19T07:42:43;89712.38;;;16.74;47.23
72585;BME280;60618;40.084;32.908;2023-09-19T07:45:10;89708.53;;;16.89;46.83
72585;BME280;60618;40.084;32.908;2023-09-19T07:47:37;89699.66;;;16.99;46.79
72585;BME280;60618;40.084;32.908;2023-09-19T07:50:04;89700.91;;;17.17;46.84
72585;BME280;60618;40.084;32.908;2023-09-19T07:52:32;89697.75;;;17.13;47.46
72585;BME280;60618;40.084;32.908;2023-09-19T07:54:58;89692.69;;;17.28;46.64
72585;BME280;60618;40.084;32.908;2023-09-19T07:57:25;89688.03;;;17.48;46.02
72585;BME280;60618;40.084;32.908;2023-09-19T07:59:52;89694.47;;;17.45;46.60
72585;BME280;60618;40.084;32.908;2023-09-19T08:02:19;89691.91;;;17.52;45.58
72585;BME280;60618;40.084;32.908;2023-09-19T08:04:46;89690.38;;;17.57;43.15
72585;BME280;60618;40.084;32.908;2023-09-19T08:07:14;89697.06;;;18.07;42.00
72585;BME280;60618;40.084;32.908;2023-09-19T08:09:42;89691.56;;;17.80;42.24
72585;BME280;60618;40.084;32.908;2023-09-19T08:12:08;89683.97;;;17.60;41.94
72585;BME280;60618;40.084;32.908;2023-09-19T08:14:36;89695.41;;;17.66;41.64
72585;BME280;60618;40.084;32.908;2023-09-19T08:17:03;89692.88;;;17.74;40.80
72585;BME280;60618;40.084;32.908;2023-09-19T08:19:30;89690.94;;;17.87;41.40
72585;BME280;60618;40.084;32.908;2023-09-19T08:21:58;89679.97;;;17.85;40.15
72585;BME280;60618;40.084;32.908;2023-09-19T08:24:29;89691.69;;;17.88;41.16
72585;BME280;60618;40.084;32.908;2023-09-19T08:26:57;89683.38;;;17.86;41.48
72585;BME280;60618;40.084;32.908;2023-09-19T08:29:24;89675.31;;;17.86;42.04
72585;BME280;60618;40.084;32.908;2023-09-19T08:31:51;89677.28;;;18.18;40.49
72585;BME280;60618;40.084;32.908;2023-09-19T08:34:18;89669.47;;;18.14;40.48
72585;BME280;60618;40.084;32.908;2023-09-19T08:36:46;89668.53;;;18.43;40.76
72585;BME280;60618;40.084;32.908;2023-09-19T08:39:13;89677.31;;;18.76;39.43
72585;BME280;60618;40.084;32.908;2023-09-19T08:41:40;89670.59;;;18.51;39.01
72585;BME280;60618;40.084;32.908;2023-09-19T08:44:07;89673.19;;;18.43;38.93
72585;BME280;60618;40.084;32.908;2023-09-19T08:46:34;89681.63;;;18.53;38.09
72585;BME280;60618;40.084;32.908;2023-09-19T08:49:17;89669.19;;;18.63;37.98
72585;BME280;60618;40.084;32.908;2023-09-19T08:51:48;89673.53;;;18.53;37.43
72585;BME280;60618;40.084;32.908;2023-09-19T08:54:25;89669.13;;;19.08;36.74
72585;BME280;60618;40.084;32.908;2023-09-19T08:56:56;89673.25;;;18.96;35.65
72585;BME280;60618;40.084;32.908;2023-09-19T08:59:26;89655.72;;;19.16;35.18
72585;BME280;60618;40.084;32.908;2023-09-19T09:01:53;89654.03;;;19.13;36.24
72585;BME280;60618;40.084;32.908;2023-09-19T09:04:22;89660.06;;;19.19;36.24
72585;BME280;60618;40.084;32.908;2023-09-19T09:06:50;89663.81;;;19.03;35.94
72585;BME280;60618;40.084;32.908;2023-09-19T09:09:18;89653.75;;;19.03;35.67
72585;BME280;60618;40.084;32.908;2023-09-19T09:11:45;89642.03;;;19.00;34.95
72585;BME280;60618;40.084;32.908;2023-09-19T09:14:13;89635.88;;;19.26;34.84
72585;BME280;60618;40.084;32.908;2023-09-19T09:16:40;89637.00;;;19.18;34.83
72585;BME280;60618;40.084;32.908;2023-09-19T09:19:07;89633.44;;;19.36;34.00
72585;BME280;60618;40.084;32.908;2023-09-19T09:21:34;89625.91;;;19.55;34.10
72585;BME280;60618;40.084;32.908;2023-09-19T09:24:27;89631.53;;;19.58;33.80
72585;BME280;60618;40.084;32.908;2023-09-19T09:26:55;89627.09;;;19.47;33.97
72585;BME280;60618;40.084;32.908;2023-09-19T09:29:41;89634.22;;;19.71;33.86
72585;BME280;60618;40.084;32.908;2023-09-19T09:32:19;89631.09;;;19.67;33.43
72585;BME280;60618;40.084;32.908;2023-09-19T09:34:49;89624.78;;;19.85;33.12
72585;BME280;60618;40.084;32.908;2023-09-19T09:37:17;89616.28;;;19.81;33.13
72585;BME280;60618;40.084;32.908;2023-09-19T09:39:58;89631.69;;;19.86;32.93
72585;BME280;60618;40.084;32.908;2023-09-19T09:42:30;89629.69;;;19.87;33.00
72585;BME280;60618;40.084;32.908;2023-09-19T09:47:47;89613.31;;;20.34;33.27
72585;BME280;60618;40.084;32.908;2023-09-19T09:50:23;89626.25;;;20.49;32.75
72585;BME280;60618;40.084;32.908;2023-09-19T09:52:50;89629.72;;;20.49;32.51
72585;BME280;60618;40.084;32.908;2023-09-19T09:55:17;89621.91;;;20.46;33.09
72585;BME280;60618;40.084;32.908;2023-09-19T09:57:44;89620.34;;;20.50;32.59
72585;BME280;60618;40.084;32.908;2023-09-19T10:00:11;89616.06;;;20.62;32.46
72585;BME280;60618;40.084;32.908;2023-09-19T10:02:39;89616.06;;;20.62;32.44
72585;BME280;60618;40.084;32.908;2023-09-19T10:05:15;89621.31;;;20.60;33.11
72585;BME280;60618;40.084;32.908;2023-09-19T10:07:42;89623.72;;;20.43;33.15
72585;BME280;60618;40.084;32.908;2023-09-19T10:10:10;89604.97;;;20.74;33.41
72585;BME280;60618;40.084;32.908;2023-09-19T10:12:43;89609.25;;;20.97;31.86
72585;BME280;60618;40.084;32.908;2023-09-19T10:15:11;89603.47;;;21.01;31.85
72585;BME280;60618;40.084;32.908;2023-09-19T10:17:42;89609.63;;;21.02;32.62
72585;BME280;60618;40.084;32.908;2023-09-19T10:20:13;89606.69;;;20.92;31.91
72585;BME280;60618;40.084;32.908;2023-09-19T10:22:41;89606.22;;;20.73;32.30
72585;BME280;60618;40.084;32.908;2023-09-19T10:25:09;89607.94;;;20.91;31.84
72585;BME280;60618;40.084;32.908;2023-09-19T10:27:36;89599.75;;;21.48;31.23
72585;BME280;60618;40.084;32.908;2023-09-19T10:30:08;89600.06;;;21.37;31.34
72585;BME280;60618;40.084;32.908;2023-09-19T10:32:39;89599.69;;;21.33;31.46
72585;BME280;60618;40.084;32.908;2023-09-19T10:35:07;89592.16;;;21.54;31.10
72585;BME280;60618;40.084;32.908;2023-09-19T10:37:35;89591.53;;;21.99;30.70
72585;BME280;60618;40.084;32.908;2023-09-19T10:40:06;89585.38;;;21.91;29.67
72585;BME280;60618;40.084;32.908;2023-09-19T10:42:34;89588.28;;;22.01;29.93
72585;BME280;60618;40.084;32.908;2023-09-19T10:45:06;89588.31;;;22.16;28.89
72585;BME280;60618;40.084;32.908;2023-09-19T10:47:34;89575.66;;;22.26;28.06
72585;BME280;60618;40.084;32.908;2023-09-19T10:50:01;89565.31;;;22.55;27.42
72585;BME280;60618;40.084;32.908;2023-09-19T10:52:29;89571.63;;;22.73;26.81
72585;BME280;60618;40.084;32.908;2023-09-19T10:54:57;89560.47;;;22.38;27.41
72585;BME280;60618;40.084;32.908;2023-09-19T10:57:25;89553.56;;;22.37;27.31
72585;BME280;60618;40.084;32.908;2023-09-19T11:00:06;89563.91;;;22.24;27.45
72585;BME280;60618;40.084;32.908;2023-09-19T11:02:33;89553.22;;;22.33;26.94
72585;BME280;60618;40.084;32.908;2023-09-19T11:05:13;89545.63;;;22.47;27.69
72585;BME280;60618;40.084;32.908;2023-09-19T11:07:59;89545.78;;;22.57;27.13
72585;BME280;60618;40.084;32.908;2023-09-19T11:10:48;89545.97;;;22.51;26.68
72585;BME280;60618;40.084;32.908;2023-09-19T11:13:29;89549.22;;;22.57;26.39
72585;BME280;60618;40.084;32.908;2023-09-19T11:26:44;89541.56;;;22.79;27.02
72585;BME280;60618;40.084;32.908;2023-09-19T11:29:40;89541.97;;;22.75;26.82
72585;BME280;60618;40.084;32.908;2023-09-19T11:32:08;89536.53;;;22.75;26.51
72585;BME280;60618;40.084;32.908;2023-09-19T11:34:43;89528.66;;;23.10;25.60
72585;BME280;60618;40.084;32.908;2023-09-19T11:39:38;89521.09;;;23.41;25.30
72585;BME280;60618;40.084;32.908;2023-09-19T11:48:06;89515.81;;;23.03;26.70
72585;BME280;60618;40.084;32.908;2023-09-19T11:50:35;89509.28;;;23.06;26.11
72585;BME280;60618;40.084;32.908;2023-09-19T11:53:03;89512.44;;;23.27;26.19
72585;BME280;60618;40.084;32.908;2023-09-19T11:55:30;89506.50;;;23.21;25.44
72585;BME280;60618;40.084;32.908;2023-09-19T11:57:58;89507.94;;;23.22;25.35
72585;BME280;60618;40.084;32.908;2023-09-19T12:00:26;89510.19;;;23.48;25.58
72585;BME280;60618;40.084;32.908;2023-09-19T12:02:55;89504.75;;;23.48;25.94
72585;BME280;60618;40.084;32.908;2023-09-19T12:05:30;89502.09;;;23.73;24.77
72585;BME280;60618;40.084;32.908;2023-09-19T12:07:57;89497.59;;;23.93;24.14
72585;BME280;60618;40.084;32.908;2023-09-19T12:10:24;89506.41;;;23.76;24.47
72585;BME280;60618;40.084;32.908;2023-09-19T12:12:52;89493.19;;;23.73;24.09
72585;BME280;60618;40.084;32.908;2023-09-19T12:15:23;89492.53;;;23.65;24.19
72585;BME280;60618;40.084;32.908;2023-09-19T12:17:51;89498.13;;;23.67;23.46
72585;BME280;60618;40.084;32.908;2023-09-19T12:20:18;89495.19;;;23.72;24.46
72585;BME280;60618;40.084;32.908;2023-09-19T12:22:46;89498.34;;;23.86;23.55
72585;BME280;60618;40.084;32.908;2023-09-19T12:25:14;89492.41;;;23.47;23.89
72585;BME280;60618;40.084;32.908;2023-09-19T12:27:44;89489.16;;;23.49;24.24
72585;BME280;60618;40.084;32.908;2023-09-19T12:30:12;89486.91;;;23.63;22.71
72585;BME280;60618;40.084;32.908;2023-09-19T12:32:42;89488.13;;;23.94;22.90
72585;BME280;60618;40.084;32.908;2023-09-19T12:35:10;89488.56;;;24.33;23.09
72585;BME280;60618;40.084;32.908;2023-09-19T12:37:42;89485.84;;;24.33;22.94
72585;BME280;60618;40.084;32.908;2023-09-19T12:40:09;89489.59;;;23.95;23.38
72585;BME280;60618;40.084;32.908;2023-09-19T12:42:36;89493.19;;;23.73;23.31
72585;BME280;60618;40.084;32.908;2023-09-19T12:45:07;89485.03;;;23.98;23.30
72585;BME280;60618;40.084;32.908;2023-09-19T12:47:34;89488.91;;;23.87;23.66
72585;BME280;60618;40.084;32.908;2023-09-19T12:50:19;89484.34;;;23.90;23.48
72585;BME280;60618;40.084;32.908;2023-09-19T12:52:47;89490.88;;;23.94;23.11
72585;BME280;60618;40.084;32.908;2023-09-19T12:55:22;89486.97;;;24.05;23.18
72585;BME280;60618;40.084;32.908;2023-09-19T12:58:11;89484.19;;;24.13;22.15
72585;BME280;60618;40.084;32.908;2023-09-19T13:00:40;89484.50;;;23.99;22.58
72585;BME280;60618;40.084;32.908;2023-09-19T13:03:15;89478.47;;;23.76;22.62
72585;BME280;60618;40.084;32.908;2023-09-19T13:05:57;89486.28;;;23.72;22.36
72585;BME280;60618;40.084;32.908;2023-09-19T13:08:25;89460.38;;;23.71;21.75
72585;BME280;60618;40.084;32.908;2023-09-19T13:11:19;89482.03;;;23.86;22.13
72585;BME280;60618;40.084;32.908;2023-09-19T13:14:12;89482.53;;;23.92;22.61
72585;BME280;60618;40.084;32.908;2023-09-19T13:22:44;89485.59;;;23.96;21.87
72585;BME280;60618;40.084;32.908;2023-09-19T13:25:16;89482.84;;;23.96;21.74
72585;BME280;60618;40.084;32.908;2023-09-19T13:27:46;89480.25;;;23.81;21.47
72585;BME280;60618;40.084;32.908;2023-09-19T13:30:13;89480.91;;;23.89;21.86
72585;BME280;60618;40.084;32.908;2023-09-19T13:32:40;89474.38;;;23.67;22.00
72585;BME280;60618;40.084;32.908;2023-09-19T13:35:07;89480.53;;;23.93;21.30
72585;BME280;60618;40.084;32.908;2023-09-19T13:37:35;89479.63;;;23.90;21.57
72585;BME280;60618;40.084;32.908;2023-09-19T13:40:02;89474.94;;;23.58;21.68